createdAt,value
2018-07-02T00:02:20.636Z,98140.81
2018-07-02T00:04:49.009Z,98140.70
2018-07-02T00:07:19.856Z,98141.91
2018-07-02T00:09:48.614Z,98139.75
2018-07-02T00:12:18.283Z,98135.63
2018-07-02T00:14:47.472Z,98138.25
2018-07-02T00:17:16.385Z,98134.52
2018-07-02T00:19:44.695Z,98139.32
2018-07-02T00:22:13.681Z,98137.74
2018-07-02T00:24:42.187Z,98133.30
2018-07-02T00:27:10.667Z,98127.23
2018-07-02T00:29:39.064Z,98128.11
2018-07-02T00:32:07.601Z,98128.69
2018-07-02T00:34:36.238Z,98121.10
2018-07-02T00:37:04.625Z,98124.80
2018-07-02T00:39:33.053Z,98125.44
2018-07-02T00:42:01.429Z,98118.67
2018-07-02T00:44:29.845Z,98119.97
2018-07-02T00:46:58.237Z,98119.34
2018-07-02T00:49:26.630Z,98121.67
2018-07-02T00:51:55.060Z,98119.27
2018-07-02T00:54:23.431Z,98116.21
2018-07-02T00:56:51.906Z,98118.30
2018-07-02T00:59:20.323Z,98109.98
2018-07-02T01:01:48.664Z,98111.91
2018-07-02T01:04:24.773Z,98106.58
2018-07-02T01:06:53.474Z,98103.23
2018-07-02T01:09:21.852Z,98110.33
2018-07-02T01:11:50.387Z,98115.72
2018-07-02T01:14:18.857Z,98116.15
2018-07-02T01:16:47.542Z,98116.16
2018-07-02T01:19:15.987Z,98115.30
2018-07-02T01:21:44.342Z,98115.55
2018-07-02T01:24:12.739Z,98121.33
2018-07-02T01:26:41.122Z,98115.51
2018-07-02T01:29:09.478Z,98111.02
2018-07-02T01:31:37.956Z,98117.48
2018-07-02T01:34:06.339Z,98115.42
2018-07-02T01:36:34.757Z,98119.95
2018-07-02T01:39:03.264Z,98119.53
2018-07-02T01:41:31.601Z,98117.39
2018-07-02T01:43:59.959Z,98121.28
2018-07-02T01:46:28.369Z,98125.25
2018-07-02T01:48:56.709Z,98133.25
2018-07-02T01:51:25.037Z,98130.41
2018-07-02T01:53:53.452Z,98131.23
2018-07-02T01:56:21.956Z,98129.92
2018-07-02T01:58:50.474Z,98126.48
2018-07-02T02:01:18.825Z,98130.91
2018-07-02T02:03:47.176Z,98128.42
2018-07-02T02:06:15.501Z,98126.58
2018-07-02T02:08:43.849Z,98131.88
2018-07-02T02:11:12.321Z,98133.05
2018-07-02T02:13:40.646Z,98134.11
2018-07-02T02:16:09.030Z,98137.17
2018-07-02T02:18:37.532Z,98138.76
2018-07-02T02:21:06.119Z,98132.31
2018-07-02T02:23:34.516Z,98136.02
2018-07-02T02:26:02.854Z,98135.96
2018-07-02T02:28:31.268Z,98140.52
2018-07-02T02:30:59.819Z,98133.01
2018-07-02T02:33:28.375Z,98131.43
2018-07-02T02:35:56.928Z,98135.45
2018-07-02T02:38:25.438Z,98136.98
2018-07-02T02:40:53.915Z,98133.01
2018-07-02T02:43:22.204Z,98124.48
2018-07-02T02:45:50.522Z,98137.39
2018-07-02T02:48:18.889Z,98131.95
2018-07-02T02:50:47.355Z,98129.02
2018-07-02T02:53:15.917Z,98133.42
2018-07-02T02:55:44.277Z,98137.08
2018-07-02T02:58:12.559Z,98133.95
2018-07-02T03:00:40.939Z,98140.41
2018-07-02T03:03:09.287Z,98138.55
2018-07-02T03:05:38.091Z,98140.14
2018-07-02T03:08:06.438Z,98137.77
2018-07-02T03:10:34.868Z,98130.83
2018-07-02T03:13:03.215Z,98133.80
2018-07-02T03:15:31.577Z,98131.13
2018-07-02T03:17:59.890Z,98136.17
2018-07-02T03:20:29.119Z,98130.14
2018-07-02T03:22:58.288Z,98135.05
2018-07-02T03:25:26.712Z,98128.17
2018-07-02T03:27:55.877Z,98133.14
2018-07-02T03:30:24.248Z,98134.78
2018-07-02T03:32:52.577Z,98137.78
2018-07-02T03:35:21.109Z,98138.91
2018-07-02T03:37:49.511Z,98140.23
2018-07-02T03:40:17.958Z,98141.55
2018-07-02T03:42:46.350Z,98137.55
2018-07-02T03:45:14.702Z,98137.91
2018-07-02T03:47:43.046Z,98126.24
2018-07-02T03:50:11.399Z,98135.75
2018-07-02T03:52:39.756Z,98141.53
2018-07-02T03:55:08.102Z,98135.45
2018-07-02T03:57:36.742Z,98126.93
2018-07-02T04:00:05.106Z,98130.30
2018-07-02T04:02:33.474Z,98136.77
2018-07-02T04:05:01.831Z,98127.38
2018-07-02T04:07:30.313Z,98131.90
2018-07-02T04:09:58.995Z,98131.61
2018-07-02T04:12:27.372Z,98144.55
2018-07-02T04:14:55.720Z,98150.02
2018-07-02T04:17:24.148Z,98155.81
2018-07-02T04:19:53.074Z,98151.48
2018-07-02T04:22:21.493Z,98150.19
2018-07-02T04:24:49.930Z,98159.17
2018-07-02T04:27:18.345Z,98157.45
2018-07-02T04:29:46.874Z,98158.73
2018-07-02T04:32:15.257Z,98160.39
2018-07-02T04:34:43.544Z,98151.80
2018-07-02T04:37:11.896Z,98144.55
2018-07-02T04:39:40.234Z,98147.72
2018-07-02T04:42:08.549Z,98149.20
2018-07-02T04:44:36.906Z,98148.83
2018-07-02T04:47:05.661Z,98149.76
2018-07-02T04:49:33.961Z,98141.56
2018-07-02T04:52:02.263Z,98152.92
2018-07-02T04:54:30.722Z,98154.13
2018-07-02T04:56:59.244Z,98151.17
2018-07-02T04:59:27.686Z,98140.66
2018-07-02T05:01:56.252Z,98140.23
2018-07-02T05:04:24.640Z,98146.38
2018-07-02T05:06:53.208Z,98141.86
2018-07-02T05:09:21.643Z,98147.52
2018-07-02T05:11:50.029Z,98147.45
2018-07-02T05:14:52.010Z,98145.17
2018-07-02T05:17:21.797Z,98145.70
2018-07-02T05:19:50.230Z,98142.44
2018-07-02T05:22:18.641Z,98144.94
2018-07-02T05:24:47.042Z,98148.48
2018-07-02T05:27:15.464Z,98146.73
2018-07-02T05:29:43.972Z,98146.81
2018-07-02T05:32:12.479Z,98144.91
2018-07-02T05:34:40.810Z,98148.22
2018-07-02T05:37:09.101Z,98144.78
2018-07-02T05:39:37.610Z,98143.93
2018-07-02T05:42:05.989Z,98143.59
2018-07-02T05:44:34.287Z,98142.70
2018-07-02T05:47:02.849Z,98146.94
2018-07-02T05:49:31.267Z,98142.63
2018-07-02T05:51:59.585Z,98140.84
2018-07-02T05:54:27.878Z,98146.42
2018-07-02T05:56:56.176Z,98146.00
2018-07-02T05:59:24.514Z,98150.38
2018-07-02T06:01:52.865Z,98153.53
2018-07-02T06:04:21.363Z,98156.69
2018-07-02T06:06:49.755Z,98157.44
2018-07-02T06:09:18.136Z,98157.04
2018-07-02T06:11:46.558Z,98162.64
2018-07-02T06:14:14.954Z,98172.73
2018-07-02T06:16:43.367Z,98170.83
2018-07-02T06:19:17.604Z,98168.98
2018-07-02T06:21:46.439Z,98168.20
2018-07-02T06:24:14.909Z,98167.72
2018-07-02T06:26:43.295Z,98171.47
2018-07-02T06:29:11.838Z,98170.41
2018-07-02T06:31:40.181Z,98170.68
2018-07-02T06:34:08.705Z,98168.58
2018-07-02T06:36:37.217Z,98171.75
2018-07-02T06:39:08.461Z,98168.27
2018-07-02T06:41:36.805Z,98172.09
2018-07-02T06:44:05.272Z,98179.19
2018-07-02T06:46:33.814Z,98172.30
2018-07-02T06:49:02.535Z,98173.57
2018-07-02T06:51:30.875Z,98179.83
2018-07-02T06:53:59.153Z,98180.89
2018-07-02T06:56:28.283Z,98176.86
2018-07-02T06:58:56.639Z,98165.95
2018-07-02T07:01:26.274Z,98175.34
2018-07-02T07:03:54.616Z,98174.98
2018-07-02T07:06:23.231Z,98179.58
2018-07-02T07:08:51.636Z,98168.17
2018-07-02T07:11:19.993Z,98170.89
2018-07-02T07:13:48.562Z,98171.87
2018-07-02T07:16:17.159Z,98175.14
2018-07-02T07:18:45.578Z,98170.48
2018-07-02T07:21:14.022Z,98179.98
2018-07-02T07:23:42.337Z,98169.72
2018-07-02T07:26:10.702Z,98171.58
2018-07-02T07:28:39.049Z,98169.25
2018-07-02T07:31:07.482Z,98170.52
2018-07-02T07:33:35.982Z,98175.00
2018-07-02T07:36:04.336Z,98171.98
2018-07-02T07:38:33.069Z,98168.00
2018-07-02T07:41:01.513Z,98174.90
2018-07-02T07:43:29.807Z,98171.86
2018-07-02T07:45:58.223Z,98167.75
2018-07-02T07:48:26.524Z,98164.96
2018-07-02T07:50:54.887Z,98173.52
2018-07-02T07:53:23.426Z,98173.07
2018-07-02T07:55:52.022Z,98178.16
2018-07-02T07:58:20.493Z,98173.45
2018-07-02T08:00:48.827Z,98175.38
2018-07-02T08:03:17.196Z,98177.00
2018-07-02T08:05:46.310Z,98174.79
2018-07-02T08:08:14.695Z,98171.94
2018-07-02T08:10:43.065Z,98167.33
2018-07-02T08:13:11.418Z,98166.86
2018-07-02T08:15:39.820Z,98170.81
2018-07-02T08:18:08.259Z,98169.64
2018-07-02T08:20:36.594Z,98157.64
2018-07-02T08:23:04.972Z,98159.66
2018-07-02T08:25:33.412Z,98158.69
2018-07-02T08:28:01.852Z,98158.87
2018-07-02T08:30:30.306Z,98156.14
2018-07-02T08:32:58.661Z,98155.17
2018-07-02T08:35:27.065Z,98151.50
2018-07-02T08:37:55.713Z,98144.92
2018-07-02T08:40:24.138Z,98148.85
2018-07-02T08:42:52.434Z,98139.97
2018-07-02T08:45:20.964Z,98144.34
2018-07-02T08:47:50.169Z,98139.85
2018-07-02T08:50:18.686Z,98144.70
2018-07-02T08:52:47.040Z,98141.34
2018-07-02T08:55:15.500Z,98130.98
2018-07-02T08:57:44.113Z,98127.41
2018-07-02T09:00:12.415Z,98128.28
2018-07-02T09:02:40.874Z,98127.75
2018-07-02T09:05:09.381Z,98127.73
2018-07-02T09:07:37.656Z,98126.56
2018-07-02T09:10:06.633Z,98127.55
2018-07-02T09:12:35.951Z,98123.52
2018-07-02T09:15:05.101Z,98129.41
2018-07-02T09:17:34.150Z,98125.31
2018-07-02T09:20:02.398Z,98132.28
2018-07-02T09:22:30.765Z,98130.55
2018-07-02T09:24:59.058Z,98135.06
2018-07-02T09:27:27.433Z,98131.87
2018-07-02T09:29:55.908Z,98135.55
2018-07-02T09:32:24.284Z,98133.73
2018-07-02T09:34:52.696Z,98127.42
2018-07-02T09:37:21.330Z,98124.30
2018-07-02T09:39:49.703Z,98129.72
2018-07-02T09:42:18.078Z,98128.80
2018-07-02T09:44:46.484Z,98131.27
2018-07-02T09:47:14.805Z,98128.88
2018-07-02T09:49:43.420Z,98129.59
2018-07-02T09:52:11.904Z,98130.50
2018-07-02T09:54:40.215Z,98128.75
2018-07-02T09:57:08.514Z,98124.58
2018-07-02T09:59:36.815Z,98122.95
2018-07-02T10:02:05.198Z,98125.55
2018-07-02T10:04:34.000Z,98126.71
2018-07-02T10:07:02.426Z,98131.83
2018-07-02T10:09:30.807Z,98130.27
2018-07-02T10:11:59.184Z,98130.47
2018-07-02T10:14:27.750Z,98124.61
2018-07-02T10:16:56.166Z,98119.12
2018-07-02T10:19:24.473Z,98119.89
2018-07-02T10:21:52.845Z,98120.10
2018-07-02T10:24:21.172Z,98114.39
2018-07-02T10:26:49.542Z,98116.91
2018-07-02T10:29:17.849Z,98122.67
2018-07-02T10:31:46.194Z,98125.00
2018-07-02T10:34:14.552Z,98112.66
2018-07-02T10:36:42.878Z,98118.16
2018-07-02T10:39:11.208Z,98119.23
2018-07-02T10:41:39.849Z,98112.50
2018-07-02T10:44:08.349Z,98119.53
2018-07-02T10:46:36.698Z,98118.31
2018-07-02T10:49:05.116Z,98123.77
2018-07-02T10:51:33.430Z,98122.62
2018-07-02T10:54:02.060Z,98110.50
2018-07-02T10:56:30.376Z,98123.44
2018-07-02T10:58:59.091Z,98117.93
2018-07-02T11:01:27.499Z,98116.00
2018-07-02T11:03:55.889Z,98111.30
2018-07-02T11:06:24.241Z,98115.59
2018-07-02T11:08:52.562Z,98109.86
2018-07-02T11:11:20.905Z,98108.25
2018-07-02T11:13:49.212Z,98120.89
2018-07-02T11:16:17.461Z,98116.20
2018-07-02T11:18:45.910Z,98119.30
2018-07-02T11:21:14.241Z,98115.94
2018-07-02T11:23:42.748Z,98109.16
2018-07-02T11:26:11.090Z,98108.39
2018-07-02T11:28:39.587Z,98107.69
2018-07-02T11:31:07.904Z,98109.61
2018-07-02T11:33:36.346Z,98109.10
2018-07-02T11:36:04.780Z,98108.78
2018-07-02T11:38:33.070Z,98099.44
2018-07-02T11:41:01.384Z,98105.25
2018-07-02T11:43:29.693Z,98103.19
2018-07-02T11:45:58.836Z,98101.22
2018-07-02T11:48:27.217Z,98107.64
2018-07-02T11:50:55.524Z,98111.23
2018-07-02T11:53:23.945Z,98104.22
2018-07-02T11:55:52.244Z,98102.39
2018-07-02T11:58:20.838Z,98098.95
2018-07-02T12:00:49.233Z,98101.56
2018-07-02T12:03:17.563Z,98099.45
2018-07-02T12:05:45.890Z,98104.44
2018-07-02T12:08:14.216Z,98108.37
2018-07-02T12:10:42.629Z,98109.34
2018-07-02T12:13:11.528Z,98107.06
2018-07-02T12:15:39.903Z,98107.09
2018-07-02T12:18:08.293Z,98110.67
2018-07-02T12:20:36.661Z,98110.34
2018-07-02T12:23:05.029Z,98113.88
2018-07-02T12:25:33.354Z,98113.65
2018-07-02T12:28:01.714Z,98113.19
2018-07-02T12:30:30.094Z,98114.64
2018-07-02T12:32:58.571Z,98113.80
2018-07-02T12:35:26.879Z,98103.11
2018-07-02T12:37:55.593Z,98112.14
2018-07-02T12:40:23.858Z,98097.56
2018-07-02T12:42:52.151Z,98110.63
2018-07-02T12:45:22.533Z,98107.48
2018-07-02T12:47:51.599Z,98096.59
2018-07-02T12:50:19.886Z,98097.49
2018-07-02T12:52:48.271Z,98103.00
2018-07-02T12:55:16.594Z,98100.05
2018-07-02T12:57:44.837Z,98107.36
2018-07-02T13:00:13.128Z,98107.11
2018-07-02T13:02:41.477Z,98101.86
2018-07-02T13:05:09.798Z,98100.23
2018-07-02T13:07:38.195Z,98099.80
2018-07-02T13:10:07.275Z,98096.20
2018-07-02T13:12:36.807Z,98096.05
2018-07-02T13:15:05.680Z,98096.57
2018-07-02T13:17:34.023Z,98092.06
2018-07-02T13:20:02.402Z,98089.88
2018-07-02T13:22:30.781Z,98085.58
2018-07-02T13:24:59.048Z,98073.47
2018-07-02T13:27:27.337Z,98078.20
2018-07-02T13:29:55.795Z,98073.00
2018-07-02T13:32:24.253Z,98076.70
2018-07-02T13:34:53.024Z,98081.63
2018-07-02T13:37:21.277Z,98075.84
2018-07-02T13:39:49.736Z,98072.79
2018-07-02T13:42:18.071Z,98077.25
2018-07-02T13:44:46.356Z,98080.61
2018-07-02T13:47:14.689Z,98075.42
2018-07-02T13:49:43.002Z,98073.85
2018-07-02T13:52:11.497Z,98071.06
2018-07-02T13:54:39.874Z,98059.11
2018-07-02T13:57:08.293Z,98063.83
2018-07-02T13:59:36.621Z,98057.27
2018-07-02T14:02:04.986Z,98055.86
2018-07-02T14:04:33.323Z,98055.60
2018-07-02T14:07:01.648Z,98053.51
2018-07-02T14:09:30.209Z,98047.90
2018-07-02T14:11:58.482Z,98053.59
2018-07-02T14:14:27.825Z,98049.19
2018-07-02T14:16:56.146Z,98047.01
2018-07-02T14:19:24.459Z,98051.63
2018-07-02T14:21:53.033Z,98047.09
2018-07-02T14:24:21.396Z,98041.34
2018-07-02T14:26:49.724Z,98055.09
2018-07-02T14:29:18.069Z,98055.25
2018-07-02T14:31:46.647Z,98045.13
2018-07-02T14:34:15.066Z,98041.07
2018-07-02T14:36:43.521Z,98045.11
2018-07-02T14:39:13.183Z,98047.19
2018-07-02T14:41:41.694Z,98043.63
2018-07-02T14:44:10.119Z,98042.19
2018-07-02T14:46:38.516Z,98042.67
2018-07-02T14:49:07.038Z,98041.61
2018-07-02T14:51:35.330Z,98043.06
2018-07-02T14:54:03.677Z,98041.13
2018-07-02T14:56:32.193Z,98038.27
2018-07-02T14:59:00.537Z,98042.99
2018-07-02T15:01:28.909Z,98042.02
2018-07-02T15:03:57.451Z,98036.59
2018-07-02T15:06:25.740Z,98030.80
2018-07-02T15:08:54.136Z,98036.00
2018-07-02T15:11:22.483Z,98023.60
2018-07-02T15:13:50.837Z,98031.45
2018-07-02T15:16:19.333Z,98028.30
2018-07-02T15:18:47.620Z,98031.73
2018-07-02T15:21:15.937Z,98034.19
2018-07-02T15:23:44.255Z,98034.28
2018-07-02T15:26:12.719Z,98031.70
2018-07-02T15:28:41.043Z,98030.22
2018-07-02T15:31:09.399Z,98021.59
2018-07-02T15:33:37.795Z,98024.80
2018-07-02T15:36:07.193Z,98024.05
2018-07-02T15:38:35.548Z,98024.41
2018-07-02T15:41:04.003Z,98029.88
2018-07-02T15:43:32.526Z,98027.96
2018-07-02T15:46:01.002Z,98022.13
2018-07-02T15:48:29.344Z,98032.00
2018-07-02T15:50:57.680Z,98025.23
2018-07-02T15:53:25.984Z,98033.09
2018-07-02T15:55:54.353Z,98025.66
2018-07-02T15:58:22.713Z,98030.69
2018-07-02T16:00:51.240Z,98027.63
2018-07-02T16:03:19.455Z,98028.06
2018-07-02T16:05:47.998Z,98025.07
2018-07-02T16:08:16.384Z,98027.34
2018-07-02T16:10:44.806Z,98021.78
2018-07-02T16:13:13.138Z,98021.34
2018-07-02T16:15:41.564Z,98015.06
2018-07-02T16:18:10.071Z,98017.01
2018-07-02T16:20:38.372Z,98017.84
2018-07-02T16:23:06.958Z,98012.32
2018-07-02T16:25:35.300Z,98004.94
2018-07-02T16:28:03.620Z,98010.08
2018-07-02T16:30:32.104Z,98009.13
2018-07-02T16:33:00.542Z,98009.72
2018-07-02T16:35:28.851Z,98001.95
2018-07-02T16:37:57.159Z,97994.38
2018-07-02T16:40:25.553Z,97998.17
2018-07-02T16:42:53.838Z,97991.38
2018-07-02T16:45:22.164Z,97986.72
2018-07-02T16:47:50.598Z,97990.72
2018-07-02T16:50:18.969Z,97996.64
2018-07-02T16:52:47.277Z,97989.53
2018-07-02T16:55:15.689Z,97990.38
2018-07-02T16:57:44.022Z,97988.09
2018-07-02T17:00:12.411Z,97992.44
2018-07-02T17:02:40.745Z,97989.20
2018-07-02T17:05:09.260Z,97996.98
2018-07-02T17:07:37.656Z,97985.72
2018-07-02T17:10:06.297Z,97994.35
2018-07-02T17:12:35.222Z,97997.00
2018-07-02T17:15:03.542Z,97999.97
2018-07-02T17:17:31.924Z,98000.09
2018-07-02T17:20:00.488Z,97995.75
2018-07-02T17:22:29.102Z,97991.20
2018-07-02T17:24:57.414Z,98000.53
2018-07-02T17:27:25.985Z,97998.55
2018-07-02T17:29:54.402Z,97998.16
2018-07-02T17:32:23.074Z,98010.23
2018-07-02T17:34:51.529Z,98005.13
2018-07-02T17:37:20.001Z,98007.27
2018-07-02T17:39:48.311Z,98002.20
2018-07-02T17:42:16.641Z,98005.51
2018-07-02T17:44:44.999Z,98003.80
2018-07-02T17:47:13.314Z,98003.23
2018-07-02T17:49:41.894Z,98004.91
2018-07-02T17:52:10.533Z,97999.30
2018-07-02T17:54:38.841Z,98010.16
2018-07-02T17:57:07.276Z,98010.23
2018-07-02T17:59:35.741Z,98008.68
2018-07-02T18:02:04.336Z,98008.05
2018-07-02T18:04:32.642Z,98008.02
2018-07-02T18:07:01.067Z,98005.61
2018-07-02T18:09:29.560Z,98006.11
2018-07-02T18:11:57.922Z,98002.94
2018-07-02T18:14:26.470Z,97999.89
2018-07-02T18:16:55.012Z,98002.71
2018-07-02T18:19:23.560Z,98003.13
2018-07-02T18:21:52.382Z,98003.03
2018-07-02T18:24:21.814Z,98006.98
2018-07-02T18:26:50.226Z,98013.25
2018-07-02T18:29:18.750Z,98004.92
2018-07-02T18:31:47.310Z,98007.91
2018-07-02T18:34:16.724Z,98001.90
2018-07-02T18:36:45.070Z,98006.10
2018-07-02T18:39:14.589Z,98005.96
2018-07-02T18:41:43.205Z,98007.94
2018-07-02T18:44:11.526Z,98003.36
2018-07-02T18:46:39.957Z,98008.32
2018-07-02T18:49:08.357Z,98018.59
2018-07-02T18:51:36.744Z,98021.36
2018-07-02T18:54:05.236Z,98017.61
2018-07-02T18:56:33.543Z,98023.17
2018-07-02T18:59:02.140Z,98020.59
2018-07-02T19:01:30.566Z,98023.39
2018-07-02T19:03:58.888Z,98021.15
2018-07-02T19:06:27.815Z,98030.64
2018-07-02T19:08:58.270Z,98022.64
2018-07-02T19:11:26.616Z,98024.20
2018-07-02T19:13:54.947Z,98031.66
2018-07-02T19:16:23.461Z,98031.25
2018-07-02T19:18:53.060Z,98032.28
2018-07-02T19:21:22.828Z,98039.89
2018-07-02T19:23:51.363Z,98038.07
2018-07-02T19:26:22.733Z,98045.35
2018-07-02T19:28:52.409Z,98048.59
2018-07-02T19:31:20.921Z,98051.50
2018-07-02T19:33:49.378Z,98049.27
2018-07-02T19:36:17.819Z,98059.68
2018-07-02T19:38:46.261Z,98056.84
2018-07-02T19:41:15.664Z,98059.73
2018-07-02T19:43:44.730Z,98066.09
2018-07-02T19:46:14.949Z,98064.12
2018-07-02T19:48:44.929Z,98065.09
2018-07-02T19:51:13.355Z,98075.20
2018-07-02T19:53:41.961Z,98080.94
2018-07-02T19:56:11.230Z,98081.67
2018-07-02T19:58:41.790Z,98087.72
2018-07-02T20:01:10.207Z,98084.87
2018-07-02T20:03:38.727Z,98100.55
2018-07-02T20:06:07.260Z,98101.89
2018-07-02T20:08:35.543Z,98102.59
2018-07-02T20:11:03.838Z,98105.95
2018-07-02T20:13:32.355Z,98107.34
2018-07-02T20:16:00.615Z,98106.88
2018-07-02T20:18:29.511Z,98111.98
2018-07-02T20:20:57.984Z,98114.45
2018-07-02T20:23:26.316Z,98118.81
2018-07-02T20:25:55.790Z,98120.27
2018-07-02T20:28:24.250Z,98123.80
2018-07-02T20:30:52.569Z,98122.34
2018-07-02T20:33:20.978Z,98127.52
2018-07-02T20:35:49.540Z,98132.66
2018-07-02T20:38:17.917Z,98138.19
2018-07-02T20:40:48.393Z,98137.28
2018-07-02T20:43:17.663Z,98144.84
2018-07-02T20:46:48.882Z,98145.08
2018-07-02T20:49:17.464Z,98153.20
2018-07-02T20:51:47.089Z,98153.21
2018-07-02T20:54:21.610Z,98150.75
2018-07-02T20:56:50.658Z,98161.41
2018-07-02T20:59:20.860Z,98158.80
2018-07-02T21:01:49.963Z,98160.03
2018-07-02T21:04:19.665Z,98163.31
2018-07-02T21:06:48.071Z,98162.45
2018-07-02T21:09:30.712Z,98162.88
2018-07-02T21:11:59.178Z,98165.20
2018-07-02T21:14:27.587Z,98169.61
2018-07-02T21:16:56.059Z,98174.73
2018-07-02T21:19:24.767Z,98175.78
2018-07-02T21:21:56.088Z,98167.39
2018-07-02T21:24:24.564Z,98169.67
2018-07-02T21:26:53.125Z,98176.49
2018-07-02T21:29:21.503Z,98171.48
2018-07-02T21:31:51.928Z,98179.87
2018-07-02T21:34:22.021Z,98176.27
2018-07-02T21:36:51.103Z,98178.23
2018-07-02T21:39:20.773Z,98179.13
2018-07-02T21:41:49.158Z,98181.89
2018-07-02T21:44:17.470Z,98182.52
2018-07-02T21:46:45.773Z,98184.38
2018-07-02T21:49:14.199Z,98181.58
2018-07-02T21:51:43.577Z,98187.36
2018-07-02T21:54:12.717Z,98182.09
2018-07-02T21:56:41.085Z,98184.42
2018-07-02T21:59:10.228Z,98183.92
2018-07-02T22:01:39.536Z,98183.94
2018-07-02T22:04:07.952Z,98176.35
2018-07-02T22:06:36.924Z,98180.30
2018-07-02T22:09:08.743Z,98179.77
2018-07-02T22:11:37.112Z,98185.66
2018-07-02T22:14:05.775Z,98187.57
2018-07-02T22:16:36.961Z,98182.17
2018-07-02T22:19:06.638Z,98183.78
2018-07-02T22:21:35.709Z,98179.71
2018-07-02T22:24:07.021Z,98181.86
2018-07-02T22:26:37.413Z,98184.28
2018-07-02T22:29:06.365Z,98180.09
2018-07-02T22:31:34.672Z,98180.28
2018-07-02T22:34:03.189Z,98187.77
2018-07-02T22:36:31.535Z,98181.89
2018-07-02T22:38:59.948Z,98185.30
2018-07-02T22:41:28.904Z,98183.91
2018-07-02T22:43:57.648Z,98184.12
2018-07-02T22:46:26.217Z,98184.41
2018-07-02T22:48:54.548Z,98179.06
2018-07-02T22:51:23.146Z,98177.73
2018-07-02T22:53:51.505Z,98175.41
2018-07-02T22:56:19.959Z,98176.95
2018-07-02T22:58:48.243Z,98177.09
2018-07-02T23:01:16.961Z,98175.59
2018-07-02T23:03:45.278Z,98182.27
2018-07-02T23:06:13.797Z,98176.86
2018-07-02T23:08:42.276Z,98178.75
2018-07-02T23:11:10.566Z,98181.68
2018-07-02T23:13:38.867Z,98182.53
2018-07-02T23:16:07.555Z,98173.91
2018-07-02T23:18:35.925Z,98178.76
2018-07-02T23:21:04.209Z,98175.57
2018-07-02T23:23:32.551Z,98168.20
2018-07-02T23:26:00.979Z,98166.56
2018-07-02T23:28:29.289Z,98167.75
2018-07-02T23:30:57.604Z,98173.01
2018-07-02T23:33:25.966Z,98183.45
2018-07-02T23:35:54.243Z,98184.02
2018-07-02T23:38:22.657Z,98175.55
2018-07-02T23:40:50.945Z,98173.22
2018-07-02T23:43:19.442Z,98172.37
2018-07-02T23:45:47.765Z,98175.80
2018-07-02T23:48:16.147Z,98173.22
2018-07-02T23:50:44.585Z,98171.58
2018-07-02T23:53:13.075Z,98174.24
2018-07-02T23:55:41.439Z,98174.73
2018-07-02T23:58:09.909Z,98176.91
